sensor_id;sensor_type;location;lat;lon;timestamp;pressure;altitude;pressure_sealevel;temperature;humidity
4972;BME280;2501;51.214;6.768;2023-12-22T00:02:04;99937.34;;;4.36;100.00
4972;BME280;2501;51.214;6.768;2023-12-22T00:04:35;99943.38;;;4.35;100.00
4972;BME280;2501;51.214;6.768;2023-12-22T00:07:03;99940.66;;;4.26;100.00
4972;BME280;2501;51.214;6.768;2023-12-22T00:09:32;99936.63;;;4.43;100.00
4972;BME280;2501;51.214;6.768;2023-12-22T00:12:00;99949.59;;;4.43;100.00
4972;BME280;2501;51.214;6.768;2023-12-22T00:14:31;99943.50;;;4.41;100.00
4972;BME280;2501;51.214;6.768;2023-12-22T00:17:00;99933.91;;;4.37;100.00
4972;BME280;2501;51.214;6.768;2023-12-22T00:19:28;99941.69;;;4.37;100.00
4972;BME280;2501;51.214;6.768;2023-12-22T00:21:59;99979.78;;;4.38;100.00
4972;BME280;2501;51.214;6.768;2023-12-22T00:24:28;99970.34;;;4.42;100.00
4972;BME280;2501;51.214;6.768;2023-12-22T00:26:54;99947.88;;;4.44;100.00
4972;BME280;2501;51.214;6.768;2023-12-22T00:29:23;99942.63;;;4.41;100.00
4972;BME280;2501;51.214;6.768;2023-12-22T00:31:53;99930.41;;;4.35;100.00
4972;BME280;2501;51.214;6.768;2023-12-22T00:34:22;99935.03;;;4.51;100.00
4972;BME280;2501;51.214;6.768;2023-12-22T00:36:50;99949.84;;;4.57;100.00
4972;BME280;2501;51.214;6.768;2023-12-22T00:39:21;99956.09;;;4.67;100.00
4972;BME280;2501;51.214;6.768;2023-12-22T00:41:50;99957.03;;;4.73;100.00
4972;BME280;2501;51.214;6.768;2023-12-22T00:44:18;99933.78;;;4.79;100.00
4972;BME280;2501;51.214;6.768;2023-12-22T00:46:47;99946.81;;;4.82;100.00
4972;BME280;2501;51.214;6.768;2023-12-22T00:49:15;99986.63;;;4.81;100.00
4972;BME280;2501;51.214;6.768;2023-12-22T00:51:43;99994.44;;;4.81;100.00
4972;BME280;2501;51.214;6.768;2023-12-22T00:54:12;99975.31;;;4.78;100.00
4972;BME280;2501;51.214;6.768;2023-12-22T00:56:43;99990.75;;;4.70;100.00
4972;BME280;2501;51.214;6.768;2023-12-22T00:59:11;99982.91;;;4.66;100.00
4972;BME280;2501;51.214;6.768;2023-12-22T01:01:39;99975.97;;;4.65;100.00
4972;BME280;2501;51.214;6.768;2023-12-22T01:04:09;99977.75;;;4.67;100.00
4972;BME280;2501;51.214;6.768;2023-12-22T01:06:37;99975.97;;;4.68;100.00
4972;BME280;2501;51.214;6.768;2023-12-22T01:09:06;99969.06;;;4.68;100.00
4972;BME280;2501;51.214;6.768;2023-12-22T01:11:35;99978.63;;;4.69;100.00
4972;BME280;2501;51.214;6.768;2023-12-22T01:14:06;99980.47;;;4.76;100.00
4972;BME280;2501;51.214;6.768;2023-12-22T01:16:35;99971.84;;;4.77;100.00
4972;BME280;2501;51.214;6.768;2023-12-22T01:19:03;99976.91;;;4.71;100.00
4972;BME280;2501;51.214;6.768;2023-12-22T01:21:31;99951.97;;;4.81;100.00
4972;BME280;2501;51.214;6.768;2023-12-22T01:24:00;99941.47;;;4.75;100.00
4972;BME280;2501;51.214;6.768;2023-12-22T01:26:28;99948.38;;;4.73;100.00
4972;BME280;2501;51.214;6.768;2023-12-22T01:29:00;99964.09;;;4.80;100.00
4972;BME280;2501;51.214;6.768;2023-12-22T01:31:31;99993.59;;;4.85;100.00
4972;BME280;2501;51.214;6.768;2023-12-22T01:34:00;99998.91;;;4.92;100.00
4972;BME280;2501;51.214;6.768;2023-12-22T01:36:28;99992.78;;;4.88;100.00
4972;BME280;2501;51.214;6.768;2023-12-22T01:38:56;99984.91;;;4.82;100.00
4972;BME280;2501;51.214;6.768;2023-12-22T01:41:25;99980.59;;;4.82;100.00
4972;BME280;2501;51.214;6.768;2023-12-22T01:43:53;99987.50;;;4.82;100.00
4972;BME280;2501;51.214;6.768;2023-12-22T01:46:22;99989.25;;;4.83;100.00
4972;BME280;2501;51.214;6.768;2023-12-22T01:48:53;100000.59;;;4.89;100.00
4972;BME280;2501;51.214;6.768;2023-12-22T01:51:21;99974.75;;;4.96;100.00
4972;BME280;2501;51.214;6.768;2023-12-22T01:53:50;99976.38;;;4.90;100.00
4972;BME280;2501;51.214;6.768;2023-12-22T01:56:19;99975.63;;;4.96;100.00
4972;BME280;2501;51.214;6.768;2023-12-22T01:58:47;99973.84;;;4.94;100.00
4972;BME280;2501;51.214;6.768;2023-12-22T02:01:16;99987.72;;;4.96;100.00
4972;BME280;2501;51.214;6.768;2023-12-22T02:03:44;99993.00;;;5.00;100.00
4972;BME280;2501;51.214;6.768;2023-12-22T02:06:15;99986.09;;;5.02;100.00
4972;BME280;2501;51.214;6.768;2023-12-22T02:08:46;100003.44;;;5.05;100.00
4972;BME280;2501;51.214;6.768;2023-12-22T02:11:15;100016.41;;;5.03;100.00
4972;BME280;2501;51.214;6.768;2023-12-22T02:13:45;100012.97;;;5.04;100.00
4972;BME280;2501;51.214;6.768;2023-12-22T02:16:29;100017.50;;;5.16;100.00
4972;BME280;2501;51.214;6.768;2023-12-22T02:19:09;100032.41;;;5.26;100.00
4972;BME280;2501;51.214;6.768;2023-12-22T02:22:04;100023.16;;;5.45;100.00
4972;BME280;2501;51.214;6.768;2023-12-22T02:24:36;100027.53;;;5.47;100.00
4972;BME280;2501;51.214;6.768;2023-12-22T02:27:06;100045.78;;;5.50;100.00
4972;BME280;2501;51.214;6.768;2023-12-22T02:29:43;100040.53;;;5.47;100.00
4972;BME280;2501;51.214;6.768;2023-12-22T02:32:20;100043.81;;;5.37;100.00
4972;BME280;2501;51.214;6.768;2023-12-22T02:34:52;99980.00;;;4.99;100.00
4972;BME280;2501;51.214;6.768;2023-12-22T02:37:22;100069.59;;;4.72;100.00
4972;BME280;2501;51.214;6.768;2023-12-22T02:39:54;100025.34;;;4.68;100.00
4972;BME280;2501;51.214;6.768;2023-12-22T02:42:23;100046.84;;;4.59;100.00
4972;BME280;2501;51.214;6.768;2023-12-22T02:44:56;100033.66;;;4.48;100.00
4972;BME280;2501;51.214;6.768;2023-12-22T02:47:24;100046.34;;;4.35;100.00
4972;BME280;2501;51.214;6.768;2023-12-22T02:49:53;100021.16;;;4.28;100.00
4972;BME280;2501;51.214;6.768;2023-12-22T02:52:22;100021.03;;;4.23;100.00
4972;BME280;2501;51.214;6.768;2023-12-22T02:54:50;100028.94;;;4.28;100.00
4972;BME280;2501;51.214;6.768;2023-12-22T02:57:21;100038.53;;;4.33;100.00
4972;BME280;2501;51.214;6.768;2023-12-22T02:59:50;100030.84;;;4.38;100.00
4972;BME280;2501;51.214;6.768;2023-12-22T03:02:18;100019.50;;;4.31;100.00
4972;BME280;2501;51.214;6.768;2023-12-22T03:04:46;100029.81;;;4.28;100.00
4972;BME280;2501;51.214;6.768;2023-12-22T03:07:15;100016.91;;;4.31;100.00
4972;BME280;2501;51.214;6.768;2023-12-22T03:09:43;99997.66;;;4.22;100.00
4972;BME280;2501;51.214;6.768;2023-12-22T03:12:12;100009.72;;;4.19;100.00
4972;BME280;2501;51.214;6.768;2023-12-22T03:14:43;100000.28;;;4.23;100.00
4972;BME280;2501;51.214;6.768;2023-12-22T03:17:11;99990.84;;;4.27;100.00
4972;BME280;2501;51.214;6.768;2023-12-22T03:19:40;100001.94;;;4.19;100.00
4972;BME280;2501;51.214;6.768;2023-12-22T03:22:08;100001.16;;;4.24;100.00
4972;BME280;2501;51.214;6.768;2023-12-22T03:24:37;99988.16;;;4.22;100.00
4972;BME280;2501;51.214;6.768;2023-12-22T03:27:05;99991.66;;;4.24;100.00
4972;BME280;2501;51.214;6.768;2023-12-22T03:29:33;100008.06;;;4.23;100.00
4972;BME280;2501;51.214;6.768;2023-12-22T03:32:05;100017.72;;;4.29;100.00
4972;BME280;2501;51.214;6.768;2023-12-22T03:34:33;100017.47;;;4.18;100.00
4972;BME280;2501;51.214;6.768;2023-12-22T03:37:02;100025.22;;;4.16;100.00
4972;BME280;2501;51.214;6.768;2023-12-22T03:39:31;100019.88;;;4.07;100.00
4972;BME280;2501;51.214;6.768;2023-12-22T03:41:59;100014.75;;;4.10;100.00
4972;BME280;2501;51.214;6.768;2023-12-22T03:44:28;100009.47;;;4.06;100.00
4972;BME280;2501;51.214;6.768;2023-12-22T03:46:56;100009.72;;;3.76;100.00
4972;BME280;2501;51.214;6.768;2023-12-22T03:49:27;100019.16;;;3.74;100.00
4972;BME280;2501;51.214;6.768;2023-12-22T03:51:56;100009.19;;;4.37;100.00
4972;BME280;2501;51.214;6.768;2023-12-22T03:54:24;99997.97;;;4.38;100.00
4972;BME280;2501;51.214;6.768;2023-12-22T03:56:52;100001.97;;;4.21;100.00
4972;BME280;2501;51.214;6.768;2023-12-22T03:59:21;100008.78;;;4.61;100.00
4972;BME280;2501;51.214;6.768;2023-12-22T04:01:52;99998.53;;;4.67;100.00
4972;BME280;2501;51.214;6.768;2023-12-22T04:04:18;100000.41;;;4.77;100.00
4972;BME280;2501;51.214;6.768;2023-12-22T04:06:50;100001.41;;;4.84;100.00
4972;BME280;2501;51.214;6.768;2023-12-22T04:09:18;99993.81;;;4.96;100.00
4972;BME280;2501;51.214;6.768;2023-12-22T04:11:47;99986.19;;;5.08;100.00
4972;BME280;2501;51.214;6.768;2023-12-22T04:14:15;99977.72;;;5.21;100.00
4972;BME280;2501;51.214;6.768;2023-12-22T04:16:44;99990.69;;;5.20;100.00
4972;BME280;2501;51.214;6.768;2023-12-22T04:19:12;100040.59;;;4.98;100.00
4972;BME280;2501;51.214;6.768;2023-12-22T04:21:40;100046.81;;;4.58;100.00
4972;BME280;2501;51.214;6.768;2023-12-22T04:24:11;100026.97;;;4.61;100.00
4972;BME280;2501;51.214;6.768;2023-12-22T04:26:40;100012.06;;;4.49;100.00
4972;BME280;2501;51.214;6.768;2023-12-22T04:29:08;100018.19;;;4.54;100.00
4972;BME280;2501;51.214;6.768;2023-12-22T04:31:37;100007.19;;;4.69;100.00
4972;BME280;2501;51.214;6.768;2023-12-22T04:34:05;100004.06;;;4.88;100.00
4972;BME280;2501;51.214;6.768;2023-12-22T04:36:35;99997.22;;;4.94;100.00
4972;BME280;2501;51.214;6.768;2023-12-22T04:39:03;99980.81;;;4.96;100.00
4972;BME280;2501;51.214;6.768;2023-12-22T04:41:35;99994.28;;;5.27;100.00
4972;BME280;2501;51.214;6.768;2023-12-22T04:44:06;100009.91;;;5.28;100.00
4972;BME280;2501;51.214;6.768;2023-12-22T04:46:34;99991.03;;;5.41;100.00
4972;BME280;2501;51.214;6.768;2023-12-22T04:49:03;100009.50;;;5.59;100.00
4972;BME280;2501;51.214;6.768;2023-12-22T04:51:31;100010.47;;;5.66;100.00
4972;BME280;2501;51.214;6.768;2023-12-22T04:54:00;100007.91;;;5.69;100.00
4972;BME280;2501;51.214;6.768;2023-12-22T04:56:28;100016.69;;;5.79;100.00
4972;BME280;2501;51.214;6.768;2023-12-22T04:59:00;100022.00;;;5.86;100.00
4972;BME280;2501;51.214;6.768;2023-12-22T05:01:28;100005.66;;;5.95;100.00
4972;BME280;2501;51.214;6.768;2023-12-22T05:03:57;100001.50;;;6.11;100.00
4972;BME280;2501;51.214;6.768;2023-12-22T05:06:25;100005.09;;;6.19;100.00
4972;BME280;2501;51.214;6.768;2023-12-22T05:08:54;100000.81;;;6.27;100.00
4972;BME280;2501;51.214;6.768;2023-12-22T05:11:23;99995.69;;;6.33;100.00
4972;BME280;2501;51.214;6.768;2023-12-22T05:13:51;100013.16;;;6.40;100.00
4972;BME280;2501;51.214;6.768;2023-12-22T05:16:22;100017.50;;;6.43;100.00
4972;BME280;2501;51.214;6.768;2023-12-22T05:18:51;100011.38;;;6.41;100.00
4972;BME280;2501;51.214;6.768;2023-12-22T05:21:19;100029.84;;;6.60;100.00
4972;BME280;2501;51.214;6.768;2023-12-22T05:23:48;100019.50;;;6.67;100.00
4972;BME280;2501;51.214;6.768;2023-12-22T05:26:18;100036.97;;;6.75;100.00
4972;BME280;2501;51.214;6.768;2023-12-22T05:28:47;100040.44;;;6.77;100.00
4972;BME280;2501;51.214;6.768;2023-12-22T05:31:16;100032.69;;;6.85;100.00
4972;BME280;2501;51.214;6.768;2023-12-22T05:33:47;100018.81;;;6.87;100.00
4972;BME280;2501;51.214;6.768;2023-12-22T05:36:15;100030.19;;;6.92;100.00
4972;BME280;2501;51.214;6.768;2023-12-22T05:38:44;100030.19;;;6.95;100.00
4972;BME280;2501;51.214;6.768;2023-12-22T05:41:13;100042.34;;;6.96;100.00
4972;BME280;2501;51.214;6.768;2023-12-22T05:43:41;100031.06;;;6.96;100.00
4972;BME280;2501;51.214;6.768;2023-12-22T05:46:10;100014.59;;;7.02;100.00
4972;BME280;2501;51.214;6.768;2023-12-22T05:48:39;100008.50;;;6.99;100.00
4972;BME280;2501;51.214;6.768;2023-12-22T05:51:10;100023.31;;;7.05;100.00
4972;BME280;2501;51.214;6.768;2023-12-22T05:53:39;100042.44;;;7.04;100.00
4972;BME280;2501;51.214;6.768;2023-12-22T05:56:17;100059.91;;;7.14;100.00
4972;BME280;2501;51.214;6.768;2023-12-22T05:58:46;100064.28;;;7.17;100.00
4972;BME280;2501;51.214;6.768;2023-12-22T06:01:14;100049.44;;;7.10;100.00
4972;BME280;2501;51.214;6.768;2023-12-22T06:03:43;100054.59;;;7.02;100.00
4972;BME280;2501;51.214;6.768;2023-12-22T06:06:15;100038.16;;;7.09;100.00
4972;BME280;2501;51.214;6.768;2023-12-22T06:08:43;100048.56;;;7.11;100.00
4972;BME280;2501;51.214;6.768;2023-12-22T06:11:12;100045.94;;;7.06;100.00
4972;BME280;2501;51.214;6.768;2023-12-22T06:13:40;100055.50;;;7.07;100.00
4972;BME280;2501;51.214;6.768;2023-12-22T06:16:11;100043.25;;;7.00;100.00
4972;BME280;2501;51.214;6.768;2023-12-22T06:18:41;100040.72;;;7.11;100.00
4972;BME280;2501;51.214;6.768;2023-12-22T06:21:10;100039.00;;;7.08;100.00
4972;BME280;2501;51.214;6.768;2023-12-22T06:23:41;100053.75;;;7.06;100.00
4972;BME280;2501;51.214;6.768;2023-12-22T06:26:10;100052.00;;;7.05;100.00
4972;BME280;2501;51.214;6.768;2023-12-22T06:28:39;100056.38;;;7.08;100.00
4972;BME280;2501;51.214;6.768;2023-12-22T06:31:07;100059.88;;;7.13;100.00
4972;BME280;2501;51.214;6.768;2023-12-22T06:33:36;100051.25;;;7.18;100.00
4972;BME280;2501;51.214;6.768;2023-12-22T06:36:05;100050.41;;;7.21;100.00
4972;BME280;2501;51.214;6.768;2023-12-22T06:38:33;100056.47;;;7.20;100.00
4972;BME280;2501;51.214;6.768;2023-12-22T06:41:04;100068.72;;;7.25;100.00
4972;BME280;2501;51.214;6.768;2023-12-22T06:43:33;100073.94;;;7.31;100.00
4972;BME280;2501;51.214;6.768;2023-12-22T06:46:01;100068.72;;;7.28;100.00
4972;BME280;2501;51.214;6.768;2023-12-22T06:48:31;100065.25;;;7.32;100.00
4972;BME280;2501;51.214;6.768;2023-12-22T06:51:03;100071.41;;;7.39;100.00
4972;BME280;2501;51.214;6.768;2023-12-22T06:53:32;100070.56;;;7.40;100.00
4972;BME280;2501;51.214;6.768;2023-12-22T06:56:00;100068.81;;;7.41;100.00
4972;BME280;2501;51.214;6.768;2023-12-22T06:58:32;100071.34;;;7.33;100.00
4972;BME280;2501;51.214;6.768;2023-12-22T07:01:00;100066.16;;;7.34;100.00
4972;BME280;2501;51.214;6.768;2023-12-22T07:03:29;100069.63;;;7.35;100.00
4972;BME280;2501;51.214;6.768;2023-12-22T07:05:57;100059.16;;;7.29;100.00
4972;BME280;2501;51.214;6.768;2023-12-22T07:08:25;100061.66;;;7.17;100.00
4972;BME280;2501;51.214;6.768;2023-12-22T07:10:54;100056.44;;;7.17;100.00
4972;BME280;2501;51.214;6.768;2023-12-22T07:13:22;100069.41;;;7.08;100.00
4972;BME280;2501;51.214;6.768;2023-12-22T07:15:54;100060.66;;;7.03;100.00
4972;BME280;2501;51.214;6.768;2023-12-22T07:18:23;100073.75;;;7.06;100.00
4972;BME280;2501;51.214;6.768;2023-12-22T07:20:55;100078.09;;;7.07;100.00
4972;BME280;2501;51.214;6.768;2023-12-22T07:23:24;100076.38;;;7.12;100.00
4972;BME280;2501;51.214;6.768;2023-12-22T07:25:52;100092.06;;;7.15;100.00
4972;BME280;2501;51.214;6.768;2023-12-22T07:28:21;100078.06;;;7.04;100.00
4972;BME280;2501;51.214;6.768;2023-12-22T07:30:49;100085.59;;;6.73;100.00
4972;BME280;2501;51.214;6.768;2023-12-22T07:33:20;100072.28;;;6.50;100.00
4972;BME280;2501;51.214;6.768;2023-12-22T07:35:49;100059.84;;;6.26;100.00
4972;BME280;2501;51.214;6.768;2023-12-22T07:38:17;100050.25;;;6.24;100.00
4972;BME280;2501;51.214;6.768;2023-12-22T07:40:46;100064.94;;;6.16;100.00
4972;BME280;2501;51.214;6.768;2023-12-22T07:43:15;100056.13;;;6.06;100.00
4972;BME280;2501;51.214;6.768;2023-12-22T07:45:43;100067.53;;;6.16;100.00
4972;BME280;2501;51.214;6.768;2023-12-22T07:48:13;100071.84;;;6.14;100.00
4972;BME280;2501;51.214;6.768;2023-12-22T07:50:44;100069.38;;;6.23;100.00
4972;BME280;2501;51.214;6.768;2023-12-22T07:53:13;100078.06;;;6.26;100.00
4972;BME280;2501;51.214;6.768;2023-12-22T07:55:42;100069.50;;;6.34;100.00
4972;BME280;2501;51.214;6.768;2023-12-22T07:58:12;100062.69;;;6.46;100.00
4972;BME280;2501;51.214;6.768;2023-12-22T08:00:42;100068.91;;;6.57;100.00
4972;BME280;2501;51.214;6.768;2023-12-22T08:03:11;100067.31;;;6.70;100.00
4972;BME280;2501;51.214;6.768;2023-12-22T08:05:40;100075.19;;;6.78;100.00
4972;BME280;2501;51.214;6.768;2023-12-22T08:08:11;100073.50;;;6.83;100.00
4972;BME280;2501;51.214;6.768;2023-12-22T08:10:41;100068.34;;;6.86;100.00
4972;BME280;2501;51.214;6.768;2023-12-22T08:13:09;100061.44;;;6.94;100.00
4972;BME280;2501;51.214;6.768;2023-12-22T08:15:38;100058.03;;;6.99;100.00
4972;BME280;2501;51.214;6.768;2023-12-22T08:18:06;100051.97;;;7.01;100.00
4972;BME280;2501;51.214;6.768;2023-12-22T08:20:35;100070.28;;;7.08;100.00
4972;BME280;2501;51.214;6.768;2023-12-22T08:23:04;100056.44;;;7.17;100.00
4972;BME280;2501;51.214;6.768;2023-12-22T08:25:32;100058.25;;;7.24;100.00
4972;BME280;2501;51.214;6.768;2023-12-22T08:28:01;100057.44;;;7.32;100.00
4972;BME280;2501;51.214;6.768;2023-12-22T08:30:29;100071.38;;;7.34;100.00
4972;BME280;2501;51.214;6.768;2023-12-22T08:32:59;100077.53;;;7.43;100.00
4972;BME280;2501;51.214;6.768;2023-12-22T08:35:27;100065.38;;;7.48;100.00
4972;BME280;2501;51.214;6.768;2023-12-22T08:37:56;100079.31;;;7.50;100.00
4972;BME280;2501;51.214;6.768;2023-12-22T08:40:25;100070.56;;;7.45;100.00
4972;BME280;2501;51.214;6.768;2023-12-22T08:42:56;100081.94;;;7.51;100.00
4972;BME280;2501;51.214;6.768;2023-12-22T08:45:25;100078.50;;;7.55;100.00
4972;BME280;2501;51.214;6.768;2023-12-22T08:47:55;100080.28;;;7.64;100.00
4972;BME280;2501;51.214;6.768;2023-12-22T08:50:23;100089.03;;;7.71;100.00
4972;BME280;2501;51.214;6.768;2023-12-22T08:52:52;100076.00;;;7.71;100.00
4972;BME280;2501;51.214;6.768;2023-12-22T08:55:21;100063.84;;;7.76;100.00
4972;BME280;2501;51.214;6.768;2023-12-22T08:57:49;100062.16;;;7.87;100.00
4972;BME280;2501;51.214;6.768;2023-12-22T09:00:21;100066.47;;;7.82;100.00
4972;BME280;2501;51.214;6.768;2023-12-22T09:02:49;100062.22;;;7.96;100.00
4972;BME280;2501;51.214;6.768;2023-12-22T09:05:19;100056.13;;;8.00;100.00
4972;BME280;2501;51.214;6.768;2023-12-22T09:07:47;100045.75;;;8.08;100.00
4972;BME280;2501;51.214;6.768;2023-12-22T09:10:16;100043.16;;;8.11;100.00
4972;BME280;2501;51.214;6.768;2023-12-22T09:12:45;100035.31;;;8.09;100.00
4972;BME280;2501;51.214;6.768;2023-12-22T09:15:13;100036.31;;;8.37;100.00
4972;BME280;2501;51.214;6.768;2023-12-22T09:17:44;100038.88;;;8.26;100.00
4972;BME280;2501;51.214;6.768;2023-12-22T09:20:13;100037.16;;;8.33;100.00
4972;BME280;2501;51.214;6.768;2023-12-22T09:22:42;100039.72;;;8.24;100.00
4972;BME280;2501;51.214;6.768;2023-12-22T09:25:10;100033.69;;;8.38;100.00
4972;BME280;2501;51.214;6.768;2023-12-22T09:27:39;100038.91;;;8.32;100.00
4972;BME280;2501;51.214;6.768;2023-12-22T09:30:08;100036.28;;;8.31;100.00
4972;BME280;2501;51.214;6.768;2023-12-22T09:32:36;100028.34;;;8.14;100.00
4972;BME280;2501;51.214;6.768;2023-12-22T09:35:07;100038.81;;;8.19;100.00
4972;BME280;2501;51.214;6.768;2023-12-22T09:37:36;100030.19;;;8.35;100.00
4972;BME280;2501;51.214;6.768;2023-12-22T09:40:06;100022.28;;;8.18;100.00
4972;BME280;2501;51.214;6.768;2023-12-22T09:42:37;100020.47;;;8.02;100.00
4972;BME280;2501;51.214;6.768;2023-12-22T09:45:11;100018.88;;;8.33;100.00
4972;BME280;2501;51.214;6.768;2023-12-22T09:47:41;100015.41;;;8.37;100.00
4972;BME280;2501;51.214;6.768;2023-12-22T09:50:14;100010.19;;;8.38;100.00
4972;BME280;2501;51.214;6.768;2023-12-22T09:52:43;100005.00;;;8.55;100.00
4972;BME280;2501;51.214;6.768;2023-12-22T09:55:13;100010.22;;;8.55;100.00
4972;BME280;2501;51.214;6.768;2023-12-22T09:57:42;100011.00;;;8.30;100.00
4972;BME280;2501;51.214;6.768;2023-12-22T10:00:12;100024.06;;;8.27;100.00
4972;BME280;2501;51.214;6.768;2023-12-22T10:02:42;100007.50;;;8.23;100.00
4972;BME280;2501;51.214;6.768;2023-12-22T10:05:13;100008.44;;;8.39;100.00
4972;BME280;2501;51.214;6.768;2023-12-22T10:07:45;100003.19;;;8.30;100.00
4972;BME280;2501;51.214;6.768;2023-12-22T10:10:13;100001.44;;;8.32;100.00
4972;BME280;2501;51.214;6.768;2023-12-22T10:12:44;99997.09;;;8.31;100.00
4972;BME280;2501;51.214;6.768;2023-12-22T10:15:14;100004.94;;;8.32;100.00
4972;BME280;2501;51.214;6.768;2023-12-22T10:17:44;99997.97;;;8.33;100.00
4972;BME280;2501;51.214;6.768;2023-12-22T10:20:16;99998.00;;;8.41;100.00
4972;BME280;2501;51.214;6.768;2023-12-22T10:22:44;99996.28;;;8.43;100.00
4972;BME280;2501;51.214;6.768;2023-12-22T10:25:14;99988.44;;;8.50;100.00
4972;BME280;2501;51.214;6.768;2023-12-22T10:27:44;99983.22;;;8.46;100.00
4972;BME280;2501;51.214;6.768;2023-12-22T10:30:13;99982.31;;;8.37;100.00
4972;BME280;2501;51.214;6.768;2023-12-22T10:32:43;99975.38;;;8.56;100.00
4972;BME280;2501;51.214;6.768;2023-12-22T10:35:11;99971.00;;;8.43;100.00
4972;BME280;2501;51.214;6.768;2023-12-22T10:37:42;99979.72;;;8.53;100.00
4972;BME280;2501;51.214;6.768;2023-12-22T10:40:12;99967.50;;;8.49;100.00
4972;BME280;2501;51.214;6.768;2023-12-22T10:42:41;99970.13;;;8.38;100.00
4972;BME280;2501;51.214;6.768;2023-12-22T10:45:09;99974.50;;;8.50;100.00
4972;BME280;2501;51.214;6.768;2023-12-22T10:47:38;99971.00;;;8.40;100.00
4972;BME280;2501;51.214;6.768;2023-12-22T10:50:08;99978.84;;;8.49;100.00
4972;BME280;2501;51.214;6.768;2023-12-22T10:52:48;99985.84;;;8.56;100.00
4972;BME280;2501;51.214;6.768;2023-12-22T10:55:17;99973.63;;;8.57;100.00
4972;BME280;2501;51.214;6.768;2023-12-22T10:57:46;99978.00;;;8.56;100.00
4972;BME280;2501;51.214;6.768;2023-12-22T11:00:16;99981.47;;;8.45;100.00
4972;BME280;2501;51.214;6.768;2023-12-22T11:02:47;99956.22;;;8.57;100.00
4972;BME280;2501;51.214;6.768;2023-12-22T11:05:16;99957.97;;;8.64;100.00
4972;BME280;2501;51.214;6.768;2023-12-22T11:07:52;99965.78;;;8.66;100.00
4972;BME280;2501;51.214;6.768;2023-12-22T11:10:23;99953.63;;;8.74;100.00
4972;BME280;2501;51.214;6.768;2023-12-22T11:12:52;99970.19;;;8.75;100.00
4972;BME280;2501;51.214;6.768;2023-12-22T11:15:22;99962.34;;;8.79;100.00
4972;BME280;2501;51.214;6.768;2023-12-22T11:17:52;99971.06;;;8.81;100.00
4972;BME280;2501;51.214;6.768;2023-12-22T11:20:24;99959.75;;;8.81;100.00
4972;BME280;2501;51.214;6.768;2023-12-22T11:22:57;99957.09;;;8.91;100.00
4972;BME280;2501;51.214;6.768;2023-12-22T11:25:26;99970.19;;;8.87;100.00
4972;BME280;2501;51.214;6.768;2023-12-22T11:27:55;99973.66;;;8.78;100.00
4972;BME280;2501;51.214;6.768;2023-12-22T11:30:24;99975.41;;;8.85;100.00
4972;BME280;2501;51.214;6.768;2023-12-22T11:32:53;99974.53;;;8.83;100.00
4972;BME280;2501;51.214;6.768;2023-12-22T11:35:23;99965.81;;;8.84;100.00
4972;BME280;2501;51.214;6.768;2023-12-22T11:37:52;99962.31;;;8.85;100.00
4972;BME280;2501;51.214;6.768;2023-12-22T11:40:24;99953.63;;;8.97;100.00
4972;BME280;2501;51.214;6.768;2023-12-22T11:42:53;99960.59;;;9.02;100.00
4972;BME280;2501;51.214;6.768;2023-12-22T11:45:22;99957.09;;;9.08;100.00
4972;BME280;2501;51.214;6.768;2023-12-22T11:47:50;99967.56;;;9.13;100.00
4972;BME280;2501;51.214;6.768;2023-12-22T11:50:28;99958.81;;;9.21;100.00
4972;BME280;2501;51.214;6.768;2023-12-22T11:53:17;99962.31;;;9.32;100.00
4972;BME280;2501;51.214;6.768;2023-12-22T11:56:03;99957.94;;;9.34;100.00
4972;BME280;2501;51.214;6.768;2023-12-22T11:58:35;99964.03;;;9.41;100.00
4972;BME280;2501;51.214;6.768;2023-12-22T12:01:05;99948.31;;;9.49;100.00
4972;BME280;2501;51.214;6.768;2023-12-22T12:03:36;99953.56;;;9.52;100.00
4972;BME280;2501;51.214;6.768;2023-12-22T12:06:30;99955.31;;;9.48;100.00
4972;BME280;2501;51.214;6.768;2023-12-22T12:09:04;99939.56;;;9.57;100.00
4972;BME280;2501;51.214;6.768;2023-12-22T12:14:43;99942.16;;;9.63;100.00
4972;BME280;2501;51.214;6.768;2023-12-22T12:17:15;99925.59;;;9.61;100.00
4972;BME280;2501;51.214;6.768;2023-12-22T12:19:45;99929.06;;;9.65;100.00
4972;BME280;2501;51.214;6.768;2023-12-22T12:22:17;99918.59;;;9.60;100.00
4972;BME280;2501;51.214;6.768;2023-12-22T12:24:50;99931.69;;;9.69;100.00
4972;BME280;2501;51.214;6.768;2023-12-22T12:27:18;99915.06;;;9.70;100.00
4972;BME280;2501;51.214;6.768;2023-12-22T12:29:50;99929.00;;;9.78;100.00
4972;BME280;2501;51.214;6.768;2023-12-22T12:32:23;99921.16;;;9.74;100.00
4972;BME280;2501;51.214;6.768;2023-12-22T12:34:52;99935.13;;;9.77;100.00
4972;BME280;2501;51.214;6.768;2023-12-22T12:37:21;99922.03;;;9.77;100.00
4972;BME280;2501;51.214;6.768;2023-12-22T12:39:52;99930.75;;;9.76;100.00
4972;BME280;2501;51.214;6.768;2023-12-22T12:42:28;99915.03;;;9.80;100.00
4972;BME280;2501;51.214;6.768;2023-12-22T12:44:59;99903.72;;;9.76;100.00
4972;BME280;2501;51.214;6.768;2023-12-22T12:47:28;99901.06;;;9.79;100.00
4972;BME280;2501;51.214;6.768;2023-12-22T12:49:57;99905.38;;;9.88;100.00
4972;BME280;2501;51.214;6.768;2023-12-22T12:52:26;99898.44;;;9.87;100.00
4972;BME280;2501;51.214;6.768;2023-12-22T12:54:55;99905.44;;;9.85;100.00
4972;BME280;2501;51.214;6.768;2023-12-22T12:57:26;99896.69;;;9.83;100.00
4972;BME280;2501;51.214;6.768;2023-12-22T12:59:54;99909.75;;;9.90;100.00
4972;BME280;2501;51.214;6.768;2023-12-22T13:02:25;99892.28;;;9.88;100.00
4972;BME280;2501;51.214;6.768;2023-12-22T13:04:54;99888.84;;;9.83;100.00
4972;BME280;2501;51.214;6.768;2023-12-22T13:07:26;99903.63;;;9.93;100.00
4972;BME280;2501;51.214;6.768;2023-12-22T13:09:54;99899.25;;;9.93;100.00
4972;BME280;2501;51.214;6.768;2023-12-22T13:12:24;99909.72;;;9.98;100.00
4972;BME280;2501;51.214;6.768;2023-12-22T13:14:54;99910.75;;;9.65;100.00
4972;BME280;2501;51.214;6.768;2023-12-22T13:17:25;99924.72;;;9.56;100.00
4972;BME280;2501;51.214;6.768;2023-12-22T13:19:54;99923.91;;;9.45;100.00
4972;BME280;2501;51.214;6.768;2023-12-22T13:22:22;99918.66;;;9.45;100.00
4972;BME280;2501;51.214;6.768;2023-12-22T13:24:57;99904.69;;;9.48;100.00
4972;BME280;2501;51.214;6.768;2023-12-22T13:27:25;99924.75;;;9.50;100.00
4972;BME280;2501;51.214;6.768;2023-12-22T13:29:54;99917.78;;;9.51;100.00
4972;BME280;2501;51.214;6.768;2023-12-22T13:32:25;99923.03;;;9.46;100.00